sensor_id;sensor_type;location;lat;lon;timestamp;pressure;altitude;pressure_sealevel;temperature;humidity
72612;BME280;60655;52.182;4.474;2023-09-18T00:01:28;100510.47;;;18.57;100.00
72612;BME280;60655;52.182;4.474;2023-09-18T00:03:29;100512.88;;;18.64;100.00
72612;BME280;60655;52.182;4.474;2023-09-18T00:05:31;100505.03;;;18.72;100.00
72612;BME280;60655;52.182;4.474;2023-09-18T00:07:32;100489.44;;;18.69;100.00
72612;BME280;60655;52.182;4.474;2023-09-18T00:09:33;100489.94;;;18.76;100.00
72612;BME280;60655;52.182;4.474;2023-09-18T00:11:34;100481.34;;;18.74;100.00
72612;BME280;60655;52.182;4.474;2023-09-18T00:13:35;100490.25;;;18.70;100.00
72612;BME280;60655;52.182;4.474;2023-09-18T00:15:36;100472.19;;;18.75;100.00
72612;BME280;60655;52.182;4.474;2023-09-18T00:17:39;100474.84;;;18.80;100.00
72612;BME280;60655;52.182;4.474;2023-09-18T00:19:40;100474.84;;;18.80;100.00
72612;BME280;60655;52.182;4.474;2023-09-18T00:21:41;100475.06;;;18.84;100.00
72612;BME280;60655;52.182;4.474;2023-09-18T00:23:42;100472.94;;;18.81;100.00
72612;BME280;60655;52.182;4.474;2023-09-18T00:25:43;100475.16;;;18.74;100.00
72612;BME280;60655;52.182;4.474;2023-09-18T00:27:43;100468.88;;;18.88;100.00
72612;BME280;60655;52.182;4.474;2023-09-18T00:29:44;100462.94;;;18.86;100.00
72612;BME280;60655;52.182;4.474;2023-09-18T00:31:45;100469.34;;;18.96;100.00
72612;BME280;60655;52.182;4.474;2023-09-18T00:33:46;100452.97;;;18.92;100.00
72612;BME280;60655;52.182;4.474;2023-09-18T00:35:51;100460.91;;;19.07;100.00
72612;BME280;60655;52.182;4.474;2023-09-18T00:37:52;100450.13;;;19.07;100.00
72612;BME280;60655;52.182;4.474;2023-09-18T00:39:53;100445.00;;;19.11;100.00
72612;BME280;60655;52.182;4.474;2023-09-18T00:41:54;100435.81;;;19.12;100.00
72612;BME280;60655;52.182;4.474;2023-09-18T00:43:55;100422.59;;;19.15;100.00
72612;BME280;60655;52.182;4.474;2023-09-18T00:45:56;100423.66;;;19.19;100.00
72612;BME280;60655;52.182;4.474;2023-09-18T00:47:57;100415.81;;;19.23;100.00
72612;BME280;60655;52.182;4.474;2023-09-18T00:49:58;100410.38;;;19.28;100.00
72612;BME280;60655;52.182;4.474;2023-09-18T00:51:59;100399.34;;;19.30;100.00
72612;BME280;60655;52.182;4.474;2023-09-18T00:54:00;100402.59;;;19.27;100.00
72612;BME280;60655;52.182;4.474;2023-09-18T00:56:03;100394.47;;;19.32;100.00
72612;BME280;60655;52.182;4.474;2023-09-18T00:58:05;100376.97;;;19.29;100.00
72612;BME280;60655;52.182;4.474;2023-09-18T01:00:07;100379.63;;;19.34;100.00
72612;BME280;60655;52.182;4.474;2023-09-18T01:02:08;100378.22;;;19.37;100.00
72612;BME280;60655;52.182;4.474;2023-09-18T01:04:09;100379.38;;;19.31;100.00
72612;BME280;60655;52.182;4.474;2023-09-18T01:06:10;100364.59;;;19.28;100.00
72612;BME280;60655;52.182;4.474;2023-09-18T01:08:11;100348.69;;;19.32;100.00
72612;BME280;60655;52.182;4.474;2023-09-18T01:10:13;100346.78;;;19.32;100.00
72612;BME280;60655;52.182;4.474;2023-09-18T01:12:28;100333.31;;;19.32;100.00
72612;BME280;60655;52.182;4.474;2023-09-18T01:14:44;100324.63;;;19.35;100.00
72612;BME280;60655;52.182;4.474;2023-09-18T01:16:53;100330.34;;;19.34;100.00
72612;BME280;60655;52.182;4.474;2023-09-18T01:18:57;100341.13;;;19.34;100.00
72612;BME280;60655;52.182;4.474;2023-09-18T01:20:57;100346.84;;;19.27;100.00
72612;BME280;60655;52.182;4.474;2023-09-18T01:22:58;100348.22;;;19.25;100.00
72612;BME280;60655;52.182;4.474;2023-09-18T01:24:59;100345.75;;;19.28;100.00
72612;BME280;60655;52.182;4.474;2023-09-18T01:27:00;100336.13;;;19.22;100.00
72612;BME280;60655;52.182;4.474;2023-09-18T01:29:01;100339.28;;;19.29;100.00
72612;BME280;60655;52.182;4.474;2023-09-18T01:31:03;100333.84;;;19.34;100.00
72612;BME280;60655;52.182;4.474;2023-09-18T01:33:04;100344.38;;;19.31;100.00
72612;BME280;60655;52.182;4.474;2023-09-18T01:35:05;100351.41;;;19.27;100.00
72612;BME280;60655;52.182;4.474;2023-09-18T01:37:09;100356.84;;;19.21;100.00
72612;BME280;60655;52.182;4.474;2023-09-18T01:39:12;100365.69;;;19.27;100.00
72612;BME280;60655;52.182;4.474;2023-09-18T01:41:13;100370.84;;;19.23;100.00
72612;BME280;60655;52.182;4.474;2023-09-18T01:43:14;100365.69;;;19.27;100.00
72612;BME280;60655;52.182;4.474;2023-09-18T01:45:15;100358.19;;;19.24;100.00
72612;BME280;60655;52.182;4.474;2023-09-18T01:47:18;100346.38;;;19.20;100.00
72612;BME280;60655;52.182;4.474;2023-09-18T01:49:31;100351.97;;;19.23;100.00
72612;BME280;60655;52.182;4.474;2023-09-18T01:51:32;100350.94;;;19.19;100.00
72612;BME280;60655;52.182;4.474;2023-09-18T01:53:33;100337.75;;;19.18;100.00
72612;BME280;60655;52.182;4.474;2023-09-18T01:55:34;100341.50;;;19.22;100.00
72612;BME280;60655;52.182;4.474;2023-09-18T01:57:35;100342.25;;;19.28;100.00
72612;BME280;60655;52.182;4.474;2023-09-18T01:59:37;100343.63;;;19.25;100.00
72612;BME280;60655;52.182;4.474;2023-09-18T02:01:38;100350.66;;;19.21;100.00
72612;BME280;60655;52.182;4.474;2023-09-18T02:03:39;100341.50;;;19.22;100.00
72612;BME280;60655;52.182;4.474;2023-09-18T02:05:42;100337.72;;;19.23;100.00
72612;BME280;60655;52.182;4.474;2023-09-18T02:07:43;100342.59;;;19.21;100.00
72612;BME280;60655;52.182;4.474;2023-09-18T02:09:44;100339.56;;;19.28;100.00
72612;BME280;60655;52.182;4.474;2023-09-18T02:11:46;100345.78;;;19.23;100.00
72612;BME280;60655;52.182;4.474;2023-09-18T02:13:48;100347.69;;;19.22;100.00
72612;BME280;60655;52.182;4.474;2023-09-18T02:15:49;100347.69;;;19.22;100.00
72612;BME280;60655;52.182;4.474;2023-09-18T02:17:50;100352.56;;;19.20;100.00
72612;BME280;60655;52.182;4.474;2023-09-18T02:19:51;100356.06;;;19.21;100.00
72612;BME280;60655;52.182;4.474;2023-09-18T02:21:52;100336.97;;;19.17;100.00
72612;BME280;60655;52.182;4.474;2023-09-18T02:23:53;100344.44;;;19.26;100.00
72612;BME280;60655;52.182;4.474;2023-09-18T02:25:58;100347.91;;;19.26;100.00
72612;BME280;60655;52.182;4.474;2023-09-18T02:27:59;100339.78;;;19.31;100.00
72612;BME280;60655;52.182;4.474;2023-09-18T02:30:00;100337.16;;;19.26;100.00
72612;BME280;60655;52.182;4.474;2023-09-18T02:32:01;100337.72;;;19.23;100.00
72612;BME280;60655;52.182;4.474;2023-09-18T02:34:03;100335.81;;;19.23;100.00
72612;BME280;60655;52.182;4.474;2023-09-18T02:36:04;100339.56;;;19.28;100.00
72612;BME280;60655;52.182;4.474;2023-09-18T02:38:05;100331.53;;;19.22;100.00
72612;BME280;60655;52.182;4.474;2023-09-18T02:40:06;100332.34;;;19.23;100.00
72612;BME280;60655;52.182;4.474;2023-09-18T02:42:08;100311.34;;;19.20;100.00
72612;BME280;60655;52.182;4.474;2023-09-18T02:44:09;100304.59;;;19.22;100.00
72612;BME280;60655;52.182;4.474;2023-09-18T02:46:10;100289.75;;;19.25;100.00
72612;BME280;60655;52.182;4.474;2023-09-18T02:48:11;100268.22;;;19.25;100.00
72612;BME280;60655;52.182;4.474;2023-09-18T02:50:12;100269.53;;;19.28;100.00
72612;BME280;60655;52.182;4.474;2023-09-18T02:52:13;100268.59;;;19.37;100.00
72612;BME280;60655;52.182;4.474;2023-09-18T02:54:14;100263.81;;;19.34;100.00
72612;BME280;60655;52.182;4.474;2023-09-18T02:56:15;100259.78;;;19.32;100.00
72612;BME280;60655;52.182;4.474;2023-09-18T02:58:16;100259.28;;;19.30;100.00
72612;BME280;60655;52.182;4.474;2023-09-18T03:00:18;100251.50;;;19.28;100.00
72612;BME280;60655;52.182;4.474;2023-09-18T03:02:19;100246.38;;;19.27;100.00
72612;BME280;60655;52.182;4.474;2023-09-18T03:04:20;100238.06;;;19.23;100.00
72612;BME280;60655;52.182;4.474;2023-09-18T03:06:21;100228.91;;;19.24;100.00
72612;BME280;60655;52.182;4.474;2023-09-18T03:08:22;100224.31;;;19.25;100.00
72612;BME280;60655;52.182;4.474;2023-09-18T03:10:23;100212.19;;;19.27;100.00
72612;BME280;60655;52.182;4.474;2023-09-18T03:12:24;100201.97;;;19.24;100.00
72612;BME280;60655;52.182;4.474;2023-09-18T03:14:25;100197.97;;;19.21;100.00
72612;BME280;60655;52.182;4.474;2023-09-18T03:16:26;100207.13;;;19.20;100.00
72612;BME280;60655;52.182;4.474;2023-09-18T03:18:27;100196.38;;;19.20;100.00
72612;BME280;60655;52.182;4.474;2023-09-18T03:20:28;100199.63;;;19.17;100.00
72612;BME280;60655;52.182;4.474;2023-09-18T03:22:29;100199.91;;;19.16;100.00
72612;BME280;60655;52.182;4.474;2023-09-18T03:24:30;100196.38;;;19.20;100.00
72612;BME280;60655;52.182;4.474;2023-09-18T03:26:31;100200.44;;;19.18;100.00
72612;BME280;60655;52.182;4.474;2023-09-18T03:28:32;100192.75;;;19.06;100.00
72612;BME280;60655;52.182;4.474;2023-09-18T03:30:33;100216.06;;;19.16;100.00
72612;BME280;60655;52.182;4.474;2023-09-18T03:32:34;100216.88;;;19.16;100.00
72612;BME280;60655;52.182;4.474;2023-09-18T03:34:36;100209.09;;;19.15;100.00
72612;BME280;60655;52.182;4.474;2023-09-18T03:36:37;100212.56;;;19.15;100.00
72612;BME280;60655;52.182;4.474;2023-09-18T03:38:39;100213.66;;;19.14;100.00
72612;BME280;60655;52.182;4.474;2023-09-18T03:40:40;100212.34;;;19.12;100.00
72612;BME280;60655;52.182;4.474;2023-09-18T03:42:41;100224.31;;;19.25;100.00
72612;BME280;60655;52.182;4.474;2023-09-18T03:44:42;100229.19;;;19.22;100.00
72612;BME280;60655;52.182;4.474;2023-09-18T03:46:43;100230.50;;;19.25;100.00
72612;BME280;60655;52.182;4.474;2023-09-18T03:48:44;100232.41;;;19.25;100.00
72612;BME280;60655;52.182;4.474;2023-09-18T03:50:47;100246.38;;;19.27;100.00
72612;BME280;60655;52.182;4.474;2023-09-18T03:52:48;100253.59;;;19.31;100.00
72612;BME280;60655;52.182;4.474;2023-09-18T03:54:49;100238.75;;;19.34;100.00
72612;BME280;60655;52.182;4.474;2023-09-18T03:56:50;100240.44;;;19.30;100.00
72612;BME280;60655;52.182;4.474;2023-09-18T03:58:51;100240.66;;;19.33;100.00
72612;BME280;60655;52.182;4.474;2023-09-18T04:00:53;100243.19;;;19.25;100.00
72612;BME280;60655;52.182;4.474;2023-09-18T04:02:53;100217.63;;;19.22;100.00
72612;BME280;60655;52.182;4.474;2023-09-18T04:04:54;100214.34;;;19.25;100.00
72612;BME280;60655;52.182;4.474;2023-09-18T04:06:55;100205.75;;;19.23;100.00
72612;BME280;60655;52.182;4.474;2023-09-18T04:08:56;100204.97;;;19.22;100.00
72612;BME280;60655;52.182;4.474;2023-09-18T04:10:57;100199.28;;;19.24;100.00
72612;BME280;60655;52.182;4.474;2023-09-18T04:12:58;100192.28;;;19.23;100.00
72612;BME280;60655;52.182;4.474;2023-09-18T04:14:59;100200.88;;;19.25;100.00
72612;BME280;60655;52.182;4.474;2023-09-18T04:17:00;100208.09;;;19.30;100.00
72612;BME280;60655;52.182;4.474;2023-09-18T04:19:02;100201.13;;;19.29;100.00
72612;BME280;60655;52.182;4.474;2023-09-18T04:21:03;100195.44;;;19.30;100.00
72612;BME280;60655;52.182;4.474;2023-09-18T04:23:24;100186.28;;;19.31;100.00
72612;BME280;60655;52.182;4.474;2023-09-18T04:25:25;100197.09;;;19.26;100.00
72612;BME280;60655;52.182;4.474;2023-09-18T04:27:26;100191.84;;;19.35;100.00
72612;BME280;60655;52.182;4.474;2023-09-18T04:29:27;100184.81;;;19.39;100.00
72612;BME280;60655;52.182;4.474;2023-09-18T04:31:28;100179.13;;;19.40;100.00
72612;BME280;60655;52.182;4.474;2023-09-18T04:33:29;100169.97;;;19.41;100.00
72612;BME280;60655;52.182;4.474;2023-09-18T04:35:30;100162.75;;;19.37;100.00
72612;BME280;60655;52.182;4.474;2023-09-18T04:37:36;100166.69;;;19.26;100.00
72612;BME280;60655;52.182;4.474;2023-09-18T04:39:37;100158.38;;;19.22;100.00
72612;BME280;60655;52.182;4.474;2023-09-18T04:41:40;100161.00;;;19.27;100.00
72612;BME280;60655;52.182;4.474;2023-09-18T04:43:41;100163.69;;;19.27;100.00
72612;BME280;60655;52.182;4.474;2023-09-18T04:45:44;100158.88;;;19.24;100.00
72612;BME280;60655;52.182;4.474;2023-09-18T04:47:45;100160.50;;;19.25;100.00
72612;BME280;60655;52.182;4.474;2023-09-18T04:49:46;100153.00;;;19.22;100.00
72612;BME280;60655;52.182;4.474;2023-09-18T04:51:48;100152.69;;;19.23;100.00
72612;BME280;60655;52.182;4.474;2023-09-18T04:53:49;100157.22;;;19.28;100.00
72612;BME280;60655;52.182;4.474;2023-09-18T04:55:52;100149.72;;;19.25;100.00
72612;BME280;60655;52.182;4.474;2023-09-18T04:57:53;100147.59;;;19.22;100.00
72612;BME280;60655;52.182;4.474;2023-09-18T04:59:54;100140.56;;;19.26;100.00
72612;BME280;60655;52.182;4.474;2023-09-18T05:01:56;100157.88;;;19.20;100.00
72612;BME280;60655;52.182;4.474;2023-09-18T05:03:57;100148.97;;;19.19;100.00
72612;BME280;60655;52.182;4.474;2023-09-18T05:05:57;100160.16;;;19.32;100.00
72612;BME280;60655;52.182;4.474;2023-09-18T05:07:58;100158.31;;;19.27;100.00
72612;BME280;60655;52.182;4.474;2023-09-18T05:09:59;100151.63;;;19.25;100.00
72612;BME280;60655;52.182;4.474;2023-09-18T05:12:04;100142.97;;;19.28;100.00
72612;BME280;60655;52.182;4.474;2023-09-18T05:14:09;100153.97;;;19.31;100.00
72612;BME280;60655;52.182;4.474;2023-09-18T05:16:10;100154.16;;;19.35;100.00
72612;BME280;60655;52.182;4.474;2023-09-18T05:18:11;100156.66;;;19.31;100.00
72612;BME280;60655;52.182;4.474;2023-09-18T05:20:12;100149.16;;;19.28;100.00
72612;BME280;60655;52.182;4.474;2023-09-18T05:22:14;100145.38;;;19.29;100.00
72612;BME280;60655;52.182;4.474;2023-09-18T05:24:15;100135.81;;;19.37;100.00
72612;BME280;60655;52.182;4.474;2023-09-18T05:26:16;100130.63;;;19.40;100.00
72612;BME280;60655;52.182;4.474;2023-09-18T05:28:17;100130.41;;;19.37;100.00
72612;BME280;60655;52.182;4.474;2023-09-18T05:30:19;100134.22;;;19.36;100.00
72612;BME280;60655;52.182;4.474;2023-09-18T05:32:23;100130.13;;;19.38;100.00
72612;BME280;60655;52.182;4.474;2023-09-18T05:34:24;100125.53;;;19.39;100.00
72612;BME280;60655;52.182;4.474;2023-09-18T05:36:26;100125.84;;;19.37;100.00
72612;BME280;60655;52.182;4.474;2023-09-18T05:38:27;100110.06;;;19.31;100.00
72612;BME280;60655;52.182;4.474;2023-09-18T05:40:28;100129.56;;;19.41;100.00
72612;BME280;60655;52.182;4.474;2023-09-18T05:42:29;100131.72;;;19.39;100.00
72612;BME280;60655;52.182;4.474;2023-09-18T05:44:30;100116.88;;;19.42;100.00
72612;BME280;60655;52.182;4.474;2023-09-18T05:46:31;100109.31;;;19.44;100.00
72612;BME280;60655;52.182;4.474;2023-09-18T05:48:32;100098.31;;;19.40;100.00
72612;BME280;60655;52.182;4.474;2023-09-18T05:50:34;100097.22;;;19.41;100.00
72612;BME280;60655;52.182;4.474;2023-09-18T05:52:36;100101.00;;;19.40;100.00
72612;BME280;60655;52.182;4.474;2023-09-18T05:54:37;100098.31;;;19.40;100.00
72612;BME280;60655;52.182;4.474;2023-09-18T05:56:38;100101.22;;;19.44;100.00
72612;BME280;60655;52.182;4.474;2023-09-18T05:58:39;100107.19;;;19.41;100.00
72612;BME280;60655;52.182;4.474;2023-09-18T06:00:40;100108.00;;;19.41;100.00
72612;BME280;60655;52.182;4.474;2023-09-18T06:02:41;100117.41;;;19.44;100.00
72612;BME280;60655;52.182;4.474;2023-09-18T06:04:42;100111.84;;;19.35;100.00
72612;BME280;60655;52.182;4.474;2023-09-18T06:06:44;100116.44;;;19.35;100.00
72612;BME280;60655;52.182;4.474;2023-09-18T06:08:44;100122.16;;;19.33;100.00
72612;BME280;60655;52.182;4.474;2023-09-18T06:10:45;100134.72;;;19.38;100.00
72612;BME280;60655;52.182;4.474;2023-09-18T06:12:46;100133.84;;;19.42;100.00
72612;BME280;60655;52.182;4.474;2023-09-18T06:14:48;100133.34;;;19.40;100.00
72612;BME280;60655;52.182;4.474;2023-09-18T06:16:49;100135.50;;;19.38;100.00
72612;BME280;60655;52.182;4.474;2023-09-18T06:18:50;100130.22;;;19.33;100.00
72612;BME280;60655;52.182;4.474;2023-09-18T06:20:51;100135.50;;;19.38;100.00
72612;BME280;60655;52.182;4.474;2023-09-18T06:22:52;100135.28;;;19.35;100.00
72612;BME280;60655;52.182;4.474;2023-09-18T06:24:53;100129.13;;;19.34;100.00
72612;BME280;60655;52.182;4.474;2023-09-18T06:26:54;100127.09;;;19.26;100.00
72612;BME280;60655;52.182;4.474;2023-09-18T06:28:55;100129.28;;;19.24;100.00
72612;BME280;60655;52.182;4.474;2023-09-18T06:30:56;100131.31;;;19.32;100.00
72612;BME280;60655;52.182;4.474;2023-09-18T06:32:57;100128.91;;;19.31;100.00
72612;BME280;60655;52.182;4.474;2023-09-18T06:34:57;100123.31;;;19.27;100.00
72612;BME280;60655;52.182;4.474;2023-09-18T06:36:58;100117.06;;;19.32;100.00
72612;BME280;60655;52.182;4.474;2023-09-18T06:38:59;100115.88;;;19.38;100.00
72612;BME280;60655;52.182;4.474;2023-09-18T06:41:00;100118.38;;;19.34;100.00
72612;BME280;60655;52.182;4.474;2023-09-18T06:43:01;100115.34;;;19.36;100.00
72612;BME280;60655;52.182;4.474;2023-09-18T06:45:03;100117.75;;;19.37;100.00
72612;BME280;60655;52.182;4.474;2023-09-18T06:47:07;100109.97;;;19.36;100.00
72612;BME280;60655;52.182;4.474;2023-09-18T06:49:08;100104.38;;;19.32;100.00
72612;BME280;60655;52.182;4.474;2023-09-18T06:51:09;100106.47;;;19.35;100.00
72612;BME280;60655;52.182;4.474;2023-09-18T06:53:10;100108.16;;;19.31;100.00
72612;BME280;60655;52.182;4.474;2023-09-18T06:55:11;100104.78;;;19.39;100.00
72612;BME280;60655;52.182;4.474;2023-09-18T06:57:11;100108.00;;;19.41;100.00
72612;BME280;60655;52.182;4.474;2023-09-18T06:59:13;100117.69;;;19.42;100.00
72612;BME280;60655;52.182;4.474;2023-09-18T07:01:14;100100.78;;;19.37;100.00
72612;BME280;60655;52.182;4.474;2023-09-18T07:03:16;100105.81;;;19.43;100.00
72612;BME280;60655;52.182;4.474;2023-09-18T07:05:18;100117.91;;;19.46;100.00
72612;BME280;60655;52.182;4.474;2023-09-18T07:07:19;100129.78;;;19.45;100.00
72612;BME280;60655;52.182;4.474;2023-09-18T07:09:25;100129.78;;;19.45;100.00
72612;BME280;60655;52.182;4.474;2023-09-18T07:11:26;100137.78;;;19.50;100.00
72612;BME280;60655;52.182;4.474;2023-09-18T07:13:27;100128.09;;;19.49;100.00
72612;BME280;60655;52.182;4.474;2023-09-18T07:15:28;100132.66;;;19.53;100.00
72612;BME280;60655;52.182;4.474;2023-09-18T07:17:29;100132.94;;;19.52;100.00
72612;BME280;60655;52.182;4.474;2023-09-18T07:19:30;100125.66;;;19.52;100.00
72612;BME280;60655;52.182;4.474;2023-09-18T07:21:31;100128.00;;;19.59;100.00
72612;BME280;60655;52.182;4.474;2023-09-18T07:23:32;100121.34;;;19.51;100.00
72612;BME280;60655;52.182;4.474;2023-09-18T07:25:36;100117.78;;;19.56;100.00
72612;BME280;60655;52.182;4.474;2023-09-18T07:27:39;100109.50;;;19.52;100.00
72612;BME280;60655;52.182;4.474;2023-09-18T07:29:44;100114.72;;;19.63;100.00
72612;BME280;60655;52.182;4.474;2023-09-18T07:31:45;100132.88;;;19.57;100.00
72612;BME280;60655;52.182;4.474;2023-09-18T07:33:47;100129.44;;;19.51;100.00
72612;BME280;60655;52.182;4.474;2023-09-18T07:35:49;100136.72;;;19.51;100.00
72612;BME280;60655;52.182;4.474;2023-09-18T07:37:52;100141.03;;;19.52;100.00
72612;BME280;60655;52.182;4.474;2023-09-18T07:39:53;100139.34;;;19.56;100.00
72612;BME280;60655;52.182;4.474;2023-09-18T07:41:54;100139.63;;;19.54;100.00
72612;BME280;60655;52.182;4.474;2023-09-18T07:43:56;100152.75;;;19.61;100.00
72612;BME280;60655;52.182;4.474;2023-09-18T07:45:59;100147.06;;;19.63;100.00
72612;BME280;60655;52.182;4.474;2023-09-18T07:48:02;100165.47;;;19.74;100.00
72612;BME280;60655;52.182;4.474;2023-09-18T07:50:04;100159.34;;;19.69;100.00
72612;BME280;60655;52.182;4.474;2023-09-18T07:52:05;100169.47;;;19.77;100.00
72612;BME280;60655;52.182;4.474;2023-09-18T07:54:07;100170.06;;;19.74;100.00
72612;BME280;60655;52.182;4.474;2023-09-18T07:56:08;100170.34;;;19.72;100.00
72612;BME280;60655;52.182;4.474;2023-09-18T07:58:09;100167.00;;;19.80;100.00
72612;BME280;60655;52.182;4.474;2023-09-18T08:00:11;100173.13;;;19.86;100.00
72612;BME280;60655;52.182;4.474;2023-09-18T08:02:13;100175.22;;;19.89;100.00
72612;BME280;60655;52.182;4.474;2023-09-18T08:04:14;100172.41;;;19.94;100.00
72612;BME280;60655;52.182;4.474;2023-09-18T08:06:15;100182.50;;;19.88;100.00
72612;BME280;60655;52.182;4.474;2023-09-18T08:08:20;100170.38;;;20.05;100.00
72612;BME280;60655;52.182;4.474;2023-09-18T08:10:21;100168.59;;;20.14;100.00
72612;BME280;60655;52.182;4.474;2023-09-18T08:12:23;100179.31;;;20.19;100.00
72612;BME280;60655;52.182;4.474;2023-09-18T08:14:26;100188.22;;;20.19;100.00
72612;BME280;60655;52.182;4.474;2023-09-18T08:16:27;100195.66;;;20.09;100.00
72612;BME280;60655;52.182;4.474;2023-09-18T08:18:28;100192.31;;;19.98;100.00
72612;BME280;60655;52.182;4.474;2023-09-18T08:20:30;100193.03;;;20.04;100.00
72612;BME280;60655;52.182;4.474;2023-09-18T08:22:31;100196.16;;;20.11;100.00
72612;BME280;60655;52.182;4.474;2023-09-18T08:24:32;100190.13;;;20.33;100.00
72612;BME280;60655;52.182;4.474;2023-09-18T08:26:33;100205.50;;;20.32;100.00
72612;BME280;60655;52.182;4.474;2023-09-18T08:28:33;100208.06;;;20.42;100.00
72612;BME280;60655;52.182;4.474;2023-09-18T08:30:36;100203.91;;;20.50;100.00
72612;BME280;60655;52.182;4.474;2023-09-18T08:32:41;100210.28;;;20.54;100.00
72612;BME280;60655;52.182;4.474;2023-09-18T08:34:42;100213.19;;;20.58;100.00
72612;BME280;60655;52.182;4.474;2023-09-18T08:36:43;100227.19;;;20.60;99.11
72612;BME280;60655;52.182;4.474;2023-09-18T08:38:44;100228.66;;;20.38;97.36
72612;BME280;60655;52.182;4.474;2023-09-18T08:40:47;100227.31;;;20.36;98.29
72612;BME280;60655;52.182;4.474;2023-09-18T08:42:51;100226.16;;;20.23;98.40
72612;BME280;60655;52.182;4.474;2023-09-18T08:44:53;100214.75;;;20.12;98.85
72612;BME280;60655;52.182;4.474;2023-09-18T08:46:58;100213.81;;;20.03;99.89
72612;BME280;60655;52.182;4.474;2023-09-18T08:48:59;100211.19;;;19.98;98.17
72612;BME280;60655;52.182;4.474;2023-09-18T08:51:05;100222.69;;;20.04;98.96
72612;BME280;60655;52.182;4.474;2023-09-18T08:53:06;100218.03;;;20.09;99.19
72612;BME280;60655;52.182;4.474;2023-09-18T08:55:07;100215.13;;;20.06;99.13
72612;BME280;60655;52.182;4.474;2023-09-18T08:57:09;100223.94;;;20.11;99.80
72612;BME280;60655;52.182;4.474;2023-09-18T08:59:11;100219.78;;;20.19;98.46
72612;BME280;60655;52.182;4.474;2023-09-18T09:01:13;100219.59;;;20.29;95.36
72612;BME280;60655;52.182;4.474;2023-09-18T09:03:14;100209.22;;;20.36;96.71
72612;BME280;60655;52.182;4.474;2023-09-18T09:05:15;100221.06;;;20.40;96.36
72612;BME280;60655;52.182;4.474;2023-09-18T09:07:16;100221.84;;;20.41;96.66
72612;BME280;60655;52.182;4.474;2023-09-18T09:09:17;100220.38;;;20.30;96.05
72612;BME280;60655;52.182;4.474;2023-09-18T09:11:19;100224.41;;;20.32;95.61
72612;BME280;60655;52.182;4.474;2023-09-18T09:13:20;100219.81;;;20.33;95.81
72612;BME280;60655;52.182;4.474;2023-09-18T09:15:28;100226.22;;;20.37;96.19
72612;BME280;60655;52.182;4.474;2023-09-18T09:17:29;100219.59;;;20.29;96.50
72612;BME280;60655;52.182;4.474;2023-09-18T09:19:32;100225.56;;;20.26;96.85
72612;BME280;60655;52.182;4.474;2023-09-18T09:21:42;100233.16;;;20.24;96.47
72612;BME280;60655;52.182;4.474;2023-09-18T09:23:49;100234.94;;;20.15;94.51
72612;BME280;60655;52.182;4.474;2023-09-18T09:25:52;100233.44;;;20.22;95.95
72612;BME280;60655;52.182;4.474;2023-09-18T09:27:54;100236.16;;;20.22;95.98
72612;BME280;60655;52.182;4.474;2023-09-18T09:29:59;100236.50;;;20.35;96.07
72612;BME280;60655;52.182;4.474;2023-09-18T09:34:25;100233.00;;;20.34;95.28
72612;BME280;60655;52.182;4.474;2023-09-18T09:36:27;100226.88;;;20.61;93.69
72612;BME280;60655;52.182;4.474;2023-09-18T09:38:33;100232.13;;;20.71;92.46
72612;BME280;60655;52.182;4.474;2023-09-18T09:40:34;100233.50;;;20.82;92.76
72612;BME280;60655;52.182;4.474;2023-09-18T09:42:41;100232.44;;;20.97;91.67
72612;BME280;60655;52.182;4.474;2023-09-18T09:44:42;100225.53;;;21.05;90.32
72612;BME280;60655;52.182;4.474;2023-09-18T09:46:47;100226.91;;;21.16;88.94
72612;BME280;60655;52.182;4.474;2023-09-18T09:49:03;100229.06;;;21.33;87.74
72612;BME280;60655;52.182;4.474;2023-09-18T09:51:05;100229.00;;;21.46;86.70
72612;BME280;60655;52.182;4.474;2023-09-18T09:53:06;100220.50;;;21.53;84.91
72612;BME280;60655;52.182;4.474;2023-09-18T09:55:23;100223.69;;;21.55;84.10
72612;BME280;60655;52.182;4.474;2023-09-18T09:57:28;100210.59;;;21.48;84.71
72612;BME280;60655;52.182;4.474;2023-09-18T09:59:29;100228.13;;;21.51;83.47
72612;BME280;60655;52.182;4.474;2023-09-18T10:01:35;100242.31;;;21.56;82.58
72612;BME280;60655;52.182;4.474;2023-09-18T10:03:38;100229.91;;;21.42;82.21
72612;BME280;60655;52.182;4.474;2023-09-18T10:05:45;100239.72;;;21.51;80.59
72612;BME280;60655;52.182;4.474;2023-09-18T10:07:46;100235.81;;;21.44;80.98
72612;BME280;60655;52.182;4.474;2023-09-18T10:09:47;100228.75;;;21.34;81.60
72612;BME280;60655;52.182;4.474;2023-09-18T10:11:52;100220.75;;;21.29;81.28
72612;BME280;60655;52.182;4.474;2023-09-18T10:13:59;100237.34;;;21.36;82.89
72612;BME280;60655;52.182;4.474;2023-09-18T10:16:01;100236.53;;;21.49;82.42
72612;BME280;60655;52.182;4.474;2023-09-18T10:18:16;100218.78;;;21.57;82.39
72612;BME280;60655;52.182;4.474;2023-09-18T10:20:18;100224.50;;;21.55;80.90
72612;BME280;60655;52.182;4.474;2023-09-18T10:22:37;100227.81;;;21.52;81.10
72612;BME280;60655;52.182;4.474;2023-09-18T10:24:40;100233.72;;;21.54;81.45
72612;BME280;60655;52.182;4.474;2023-09-18T10:26:57;100242.97;;;21.76;80.99
72612;BME280;60655;52.182;4.474;2023-09-18T10:29:00;100236.66;;;21.67;80.62
72612;BME280;60655;52.182;4.474;2023-09-18T10:31:04;100232.53;;;21.83;80.97
72612;BME280;60655;52.182;4.474;2023-09-18T10:33:05;100228.34;;;21.99;79.67
72612;BME280;60655;52.182;4.474;2023-09-18T10:35:08;100234.38;;;21.96;78.61